Time;durP1;ratioP1;P1;durP2;ratioP2;P2;SDS_P1;SDS_P2;PMS_P1;PMS_P2;Temp;Humidity;BMP_temperature;BMP_pressure;BME280_temperature;BME280_humidity;BME280_pressure;Samples;Min_cycle;Max_cycle;Signal;HPM_P1;HPM_P2
2024/01/04 00:00:45;;;;;;;;;;;;;;;3.84;100.00;94666.13;5055705;28;1977;-63
2024/01/04 00:03:11;;;;;;;;;;;;;;;4.11;100.00;94676.94;5038335;28;1029;-62
2024/01/04 00:05:37;;;;;;;;;;;;;;;4.23;100.00;94676.84;5056120;28;1015;-63
2024/01/04 00:08:03;;;;;;;;;;;;;;;4.21;100.00;94673.50;5055930;28;1041;-62
2024/01/04 00:10:29;;;;;;;;;;;;;;;4.33;100.00;94669.81;5055582;28;1087;-62
2024/01/04 00:12:55;;;;;;;;;;;;;;;4.35;100.00;94662.56;5055677;28;1112;-63
2024/01/04 00:15:21;;;;;;;;;;;;;;;4.17;100.00;94659.69;5055557;28;1107;-64
2024/01/04 00:17:47;;;;;;;;;;;;;;;4.16;100.00;94667.81;5055791;28;1055;-61
2024/01/04 00:20:13;;;;;;;;;;;;;;;4.29;100.00;94673.69;5055803;28;1064;-63
2024/01/04 00:22:39;;;;;;;;;;;;;;;4.39;100.00;94663.13;5055574;28;1906;-63
2024/01/04 00:25:05;;;;;;;;;;;;;;;4.24;100.00;94660.84;5055382;28;1097;-63
2024/01/04 00:27:32;;;;;;;;;;;;;;;4.24;100.00;94647.63;5055518;28;1166;-63
2024/01/04 00:29:58;;;;;;;;;;;;;;;4.18;100.00;94640.22;5055302;28;1068;-63
2024/01/04 00:32:25;;;;;;;;;;;;;;;4.28;100.00;94649.00;5055525;28;1058;-63
2024/01/04 00:34:51;;;;;;;;;;;;;;;4.53;100.00;94653.97;5055445;28;975;-63
2024/01/04 00:37:17;;;;;;;;;;;;;;;4.64;100.00;94641.44;5055650;28;1540;-63
2024/01/04 00:39:43;;;;;;;;;;;;;;;4.62;100.00;94647.84;5055271;28;1011;-63
2024/01/04 00:42:09;;;;;;;;;;;;;;;4.71;100.00;94652.31;5055109;28;1930;-63
2024/01/04 00:44:35;;;;;;;;;;;;;;;4.73;100.00;94638.94;5055274;28;974;-62
2024/01/04 00:47:01;;;;;;;;;;;;;;;4.34;100.00;94647.63;5055338;28;1019;-63
2024/01/04 00:49:28;;;;;;;;;;;;;;;4.40;100.00;94640.97;5036608;28;959;-63
2024/01/04 00:51:54;;;;;;;;;;;;;;;4.33;100.00;94645.16;5055247;28;992;-63
2024/01/04 00:54:20;;;;;;;;;;;;;;;4.45;100.00;94652.81;5054912;28;990;-63
2024/01/04 00:56:46;;;;;;;;;;;;;;;4.53;100.00;94651.31;5055184;28;1298;-63
2024/01/04 00:59:12;;;;;;;;;;;;;;;4.56;100.00;94651.06;5054541;28;1130;-63
2024/01/04 01:01:39;;;;;;;;;;;;;;;4.60;100.00;94655.09;5036854;28;1989;-63
2024/01/04 01:04:05;;;;;;;;;;;;;;;4.63;100.00;94652.16;5054848;28;1038;-63
2024/01/04 01:06:31;;;;;;;;;;;;;;;4.61;100.00;94641.72;5054652;28;970;-63
2024/01/04 01:08:57;;;;;;;;;;;;;;;4.56;100.00;94641.28;5054709;28;958;-63
2024/01/04 01:11:23;;;;;;;;;;;;;;;4.50;100.00;94653.25;5054749;28;1281;-63
2024/01/04 01:13:49;;;;;;;;;;;;;;;4.70;100.00;94661.22;5054537;28;1026;-63
2024/01/04 01:16:15;;;;;;;;;;;;;;;4.55;100.00;94652.00;5054738;28;1045;-64
2024/01/04 01:18:41;;;;;;;;;;;;;;;4.39;100.00;94642.78;5054732;28;1080;-64
2024/01/04 01:21:07;;;;;;;;;;;;;;;4.35;100.00;94641.38;5054517;28;1995;-64
2024/01/04 01:23:33;;;;;;;;;;;;;;;4.53;100.00;94649.50;5054536;28;1065;-64
2024/01/04 01:25:59;;;;;;;;;;;;;;;4.73;100.00;94645.06;5054251;28;1244;-63
2024/01/04 01:28:25;;;;;;;;;;;;;;;4.97;100.00;94630.56;5054109;28;1151;-64
2024/01/04 01:30:51;;;;;;;;;;;;;;;4.93;100.00;94637.97;5054210;28;1033;-64
2024/01/04 01:33:17;;;;;;;;;;;;;;;4.84;100.00;94634.34;5054243;28;1044;-63
2024/01/04 01:35:43;;;;;;;;;;;;;;;4.78;100.00;94626.09;5054050;28;1009;-64
2024/01/04 01:38:09;;;;;;;;;;;;;;;4.94;100.00;94629.06;5054405;28;965;-64
2024/01/04 01:40:35;;;;;;;;;;;;;;;5.10;100.00;94631.13;5054022;28;1028;-64
2024/01/04 01:43:01;;;;;;;;;;;;;;;4.99;100.00;94631.28;5053907;28;1906;-63
2024/01/04 01:45:27;;;;;;;;;;;;;;;4.74;100.00;94640.59;5036252;28;1020;-64
2024/01/04 01:47:54;;;;;;;;;;;;;;;4.73;100.00;94645.06;5054166;28;1061;-63
2024/01/04 01:50:20;;;;;;;;;;;;;;;4.48;100.00;94659.69;5053906;28;955;-63
2024/01/04 01:52:53;;;;;;;;;;;;;;;4.30;100.00;94654.19;5054044;28;1088;-63
2024/01/04 01:55:19;;;;;;;;;;;;;;;4.45;100.00;94663.41;5053961;28;995;-64
2024/01/04 01:57:46;;;;;;;;;;;;;;;4.58;100.00;94657.03;5053663;28;936;-63
2024/01/04 02:00:13;;;;;;;;;;;;;;;4.39;100.00;94656.03;5035859;28;1077;-63
2024/01/04 02:02:39;;;;;;;;;;;;;;;4.36;100.00;94640.41;5053493;28;1991;-64
2024/01/04 02:05:07;;;;;;;;;;;;;;;4.42;100.00;94641.66;5053554;28;1025;-63
2024/01/04 02:07:33;;;;;;;;;;;;;;;4.41;100.00;94642.66;5053415;28;1162;-63
2024/01/04 02:09:59;;;;;;;;;;;;;;;4.57;100.00;94639.47;5053490;28;1036;-63
2024/01/04 02:12:25;;;;;;;;;;;;;;;4.62;100.00;94645.19;5053295;28;982;-63
2024/01/04 02:14:54;;;;;;;;;;;;;;;4.48;100.00;94649.09;5053406;28;1057;-64
2024/01/04 02:17:21;;;;;;;;;;;;;;;4.30;100.00;94649.72;5053261;28;1099;-63
2024/01/04 02:19:47;;;;;;;;;;;;;;;4.29;100.00;94636.66;5053399;28;1045;-63
2024/01/04 02:22:14;;;;;;;;;;;;;;;3.94;100.00;94632.63;5053195;28;1910;-63
2024/01/04 02:24:40;;;;;;;;;;;;;;;3.84;100.00;94629.09;5053157;28;1086;-63
2024/01/04 02:27:06;;;;;;;;;;;;;;;3.98;100.00;94639.31;5053222;28;1057;-63
2024/01/04 02:29:32;;;;;;;;;;;;;;;4.15;100.00;94644.94;5053286;28;1205;-63
2024/01/04 02:31:58;;;;;;;;;;;;;;;4.18;100.00;94640.22;5053490;28;1053;-64
2024/01/04 02:34:24;;;;;;;;;;;;;;;4.20;100.00;94632.97;5053098;28;1088;-63
2024/01/04 02:36:50;;;;;;;;;;;;;;;4.22;100.00;94619.63;5053179;28;1004;-64
2024/01/04 02:39:16;;;;;;;;;;;;;;;3.94;100.00;94637.06;5053357;28;1076;-63
2024/01/04 02:41:42;;;;;;;;;;;;;;;3.86;100.00;94633.28;5053451;28;1909;-64
2024/01/04 02:44:08;;;;;;;;;;;;;;;3.66;100.00;94621.81;5053281;28;971;-63
2024/01/04 02:46:34;;;;;;;;;;;;;;;3.84;100.00;94618.53;5053207;28;1016;-64
2024/01/04 02:49:00;;;;;;;;;;;;;;;4.07;100.00;94630.56;5053106;28;1007;-64
2024/01/04 02:51:26;;;;;;;;;;;;;;;4.14;100.00;94619.47;5052953;28;1032;-64
2024/01/04 02:53:52;;;;;;;;;;;;;;;4.10;100.00;94614.44;5052956;28;1057;-64
2024/01/04 02:56:18;;;;;;;;;;;;;;;3.94;100.00;94623.84;5053352;28;996;-64
2024/01/04 02:58:45;;;;;;;;;;;;;;;3.95;100.00;94623.72;5053155;28;975;-64
2024/01/04 03:01:11;;;;;;;;;;;;;;;3.69;100.00;94603.00;5052657;28;1993;-64
2024/01/04 03:03:37;;;;;;;;;;;;;;;3.42;100.00;94584.25;5053172;28;1026;-64
2024/01/04 03:06:04;;;;;;;;;;;;;;;3.53;100.00;94570.97;5053208;28;1073;-64
2024/01/04 03:08:30;;;;;;;;;;;;;;;3.78;100.00;94574.13;5053268;28;970;-64
2024/01/04 03:10:56;;;;;;;;;;;;;;;3.96;100.00;94576.94;5052984;28;986;-64
2024/01/04 03:13:22;;;;;;;;;;;;;;;3.99;100.00;94587.25;5056124;28;1011;-64
2024/01/04 03:15:48;;;;;;;;;;;;;;;3.59;100.00;94562.50;5056788;28;1099;-64
2024/01/04 03:18:14;;;;;;;;;;;;;;;3.41;100.00;94566.72;5056961;28;1015;-63
2024/01/04 03:20:40;;;;;;;;;;;;;;;3.57;100.00;94572.38;5056961;28;1020;-64
2024/01/04 03:23:06;;;;;;;;;;;;;;;3.76;100.00;94562.84;5056577;28;1902;-64
2024/01/04 03:25:32;;;;;;;;;;;;;;;3.92;100.00;94568.44;5056356;28;1076;-64
2024/01/04 03:27:58;;;;;;;;;;;;;;;3.82;100.00;94570.22;5056473;28;1154;-64
2024/01/04 03:30:24;;;;;;;;;;;;;;;3.50;100.00;94569.41;5056529;28;1080;-64
2024/01/04 03:32:50;;;;;;;;;;;;;;;3.64;100.00;94568.22;5056660;28;972;-64
2024/01/04 03:35:16;;;;;;;;;;;;;;;3.60;100.00;94576.53;5056305;28;1103;-64
2024/01/04 03:37:42;;;;;;;;;;;;;;;3.50;100.00;94577.31;5056421;28;974;-64
2024/01/04 03:40:08;;;;;;;;;;;;;;;3.49;100.00;94574.81;5056301;28;1029;-64
2024/01/04 03:42:34;;;;;;;;;;;;;;;3.41;100.00;94567.53;5056424;28;1983;-64
2024/01/04 03:45:00;;;;;;;;;;;;;;;3.35;100.00;94561.97;5056266;28;1037;-62
2024/01/04 03:47:27;;;;;;;;;;;;;;;3.41;100.00;94574.63;5056560;28;968;-63
2024/01/04 03:49:53;;;;;;;;;;;;;;;3.37;100.00;94573.22;5056164;28;1020;-64
2024/01/04 03:52:19;;;;;;;;;;;;;;;3.37;100.00;94563.50;5056097;28;1020;-64
2024/01/04 03:54:45;;;;;;;;;;;;;;;3.30;100.00;94576.41;5056247;28;1060;-64
2024/01/04 03:57:11;;;;;;;;;;;;;;;3.56;100.00;94568.03;5056243;28;1056;-64
2024/01/04 03:59:37;;;;;;;;;;;;;;;3.48;100.00;94575.78;5055115;28;1056;-64
2024/01/04 04:02:03;;;;;;;;;;;;;;;3.46;100.00;94567.16;5054986;28;1910;-64
2024/01/04 04:04:29;;;;;;;;;;;;;;;3.31;100.00;94562.22;5056137;28;974;-64
2024/01/04 04:06:55;;;;;;;;;;;;;;;3.35;100.00;94562.78;5056131;28;1044;-64
2024/01/04 04:09:21;;;;;;;;;;;;;;;3.20;100.00;94562.28;5055938;28;1048;-64
2024/01/04 04:11:48;;;;;;;;;;;;;;;3.20;100.00;94561.47;5055739;28;1016;-64
2024/01/04 04:14:15;;;;;;;;;;;;;;;3.08;100.00;94553.59;5055833;28;976;-64
2024/01/04 04:16:41;;;;;;;;;;;;;;;2.89;100.00;94553.50;5055819;28;1052;-64
2024/01/04 04:19:07;;;;;;;;;;;;;;;2.95;100.00;94558.25;5055816;28;1052;-63
2024/01/04 04:21:34;;;;;;;;;;;;;;;3.11;100.00;94573.63;5055724;28;1902;-64
2024/01/04 04:24:00;;;;;;;;;;;;;;;3.03;100.00;94581.38;5054294;28;1037;-65
2024/01/04 04:26:26;;;;;;;;;;;;;;;2.86;100.00;94578.34;5055206;28;1138;-62
2024/01/04 04:28:52;;;;;;;;;;;;;;;2.87;100.00;94573.91;5055518;28;1166;-63
2024/01/04 04:31:19;;;;;;;;;;;;;;;2.71;100.00;94579.63;5055702;28;1052;-63
2024/01/04 04:33:45;;;;;;;;;;;;;;;2.60;100.00;94580.53;5055667;28;1084;-66
2024/01/04 04:36:12;;;;;;;;;;;;;;;2.71;100.00;94585.75;5055419;28;993;-64
2024/01/04 04:38:38;;;;;;;;;;;;;;;2.75;100.00;94573.13;5055160;28;1033;-64
2024/01/04 04:41:05;;;;;;;;;;;;;;;2.69;100.00;94552.50;5055140;28;1906;-64
2024/01/04 04:43:31;;;;;;;;;;;;;;;2.81;100.00;94550.66;5055051;28;937;-65
2024/01/04 04:45:57;;;;;;;;;;;;;;;2.86;100.00;94551.94;5055142;28;1025;-64
2024/01/04 04:48:23;;;;;;;;;;;;;;;2.92;100.00;94553.22;5055118;28;1120;-66
2024/01/04 04:50:50;;;;;;;;;;;;;;;2.89;100.00;94545.56;5054933;28;1017;-65
2024/01/04 04:53:16;;;;;;;;;;;;;;;2.93;100.00;94544.34;5054523;28;1104;-64
2024/01/04 04:55:42;;;;;;;;;;;;;;;2.86;100.00;94545.81;5054879;28;1024;-62
2024/01/04 04:58:08;;;;;;;;;;;;;;;2.61;100.00;94553.16;5055000;28;1060;-63
2024/01/04 05:00:34;;;;;;;;;;;;;;;2.53;100.00;94561.72;5054757;28;999;-64
2024/01/04 05:03:00;;;;;;;;;;;;;;;2.57;100.00;94564.94;5054667;28;1965;-63
2024/01/04 05:05:26;;;;;;;;;;;;;;;2.70;100.00;94562.94;5054593;28;1025;-62
2024/01/04 05:07:52;;;;;;;;;;;;;;;2.60;100.00;94569.13;5054647;28;1150;-66
2024/01/04 05:10:18;;;;;;;;;;;;;;;2.69;100.00;94589.47;5054549;28;1032;-62
2024/01/04 05:12:44;;;;;;;;;;;;;;;2.73;100.00;94598.81;5054697;28;973;-62
2024/01/04 05:15:10;;;;;;;;;;;;;;;2.65;100.00;94591.53;5054537;28;1092;-62
2024/01/04 05:17:36;;;;;;;;;;;;;;;2.61;100.00;94594.56;5054768;28;1027;-64
2024/01/04 05:20:04;;;;;;;;;;;;;;;2.67;100.00;94589.59;5054732;28;1041;-63
2024/01/04 05:22:30;;;;;;;;;;;;;;;2.29;100.00;94572.47;5054210;28;2024;-63
2024/01/04 05:24:56;;;;;;;;;;;;;;;2.18;100.00;94563.75;5053001;28;1110;-64
2024/01/04 05:27:22;;;;;;;;;;;;;;;2.42;100.00;94580.22;5054477;28;1201;-63
2024/01/04 05:29:48;;;;;;;;;;;;;;;2.62;100.00;94583.88;5054318;28;1044;-62
2024/01/04 05:32:14;;;;;;;;;;;;;;;2.59;100.00;94578.84;5036460;28;1028;-64
2024/01/04 05:34:43;;;;;;;;;;;;;;;2.29;100.00;94580.38;5054195;28;1048;-65
2024/01/04 05:37:09;;;;;;;;;;;;;;;2.13;100.00;94570.25;5054385;28;1076;-64
2024/01/04 05:39:35;;;;;;;;;;;;;;;2.19;100.00;94582.09;5054560;28;985;-65
2024/01/04 05:42:01;;;;;;;;;;;;;;;2.31;100.00;94591.63;5054231;28;1935;-65
2024/01/04 05:44:27;;;;;;;;;;;;;;;2.41;100.00;94583.84;5053962;28;1075;-64
2024/01/04 05:46:53;;;;;;;;;;;;;;;2.15;100.00;94584.16;5054164;28;981;-64
2024/01/04 05:49:19;;;;;;;;;;;;;;;2.25;100.00;94591.31;5054095;28;1052;-66
2024/01/04 05:51:45;;;;;;;;;;;;;;;2.27;100.00;94582.31;5054096;28;1056;-63
2024/01/04 05:54:11;;;;;;;;;;;;;;;2.25;100.00;94592.16;5053788;28;1008;-65
2024/01/04 05:56:37;;;;;;;;;;;;;;;2.43;100.00;94605.66;5054002;28;1072;-66
2024/01/04 05:59:03;;;;;;;;;;;;;;;2.44;100.00;94602.03;5053726;28;975;-66
2024/01/04 06:01:29;;;;;;;;;;;;;;;2.53;100.00;94597.81;5053749;28;1997;-65
2024/01/04 06:03:55;;;;;;;;;;;;;;;2.56;100.00;94602.00;5053686;28;974;-65
2024/01/04 06:06:21;;;;;;;;;;;;;;;2.63;100.00;94600.53;5053663;28;977;-66
2024/01/04 06:08:47;;;;;;;;;;;;;;;2.77;100.00;94607.31;5053572;28;1166;-67
2024/01/04 06:11:13;;;;;;;;;;;;;;;2.79;100.00;94606.25;5053486;28;1073;-63
2024/01/04 06:13:39;;;;;;;;;;;;;;;2.92;100.00;94598.97;5053452;28;1072;-62
2024/01/04 06:16:07;;;;;;;;;;;;;;;2.81;100.00;94584.97;5053736;28;941;-64
2024/01/04 06:18:36;;;;;;;;;;;;;;;2.88;100.00;94580.84;5053321;28;1079;-60
2024/01/04 06:21:02;;;;;;;;;;;;;;;3.03;100.00;94570.81;5053561;28;1918;-64
2024/01/04 06:23:28;;;;;;;;;;;;;;;2.74;100.00;94563.53;5053468;28;1021;-66
2024/01/04 06:25:55;;;;;;;;;;;;;;;2.57;100.00;94578.13;5053210;28;1078;-65
2024/01/04 06:28:21;;;;;;;;;;;;;;;2.31;100.00;94575.81;5035701;28;1558;-65
2024/01/04 06:30:47;;;;;;;;;;;;;;;2.41;100.00;94572.44;5053373;28;1023;-65
2024/01/04 06:33:14;;;;;;;;;;;;;;;2.68;100.00;94569.34;5053095;28;1064;-65
2024/01/04 06:35:40;;;;;;;;;;;;;;;2.86;100.00;94574.88;5053137;28;1041;-65
2024/01/04 06:38:09;;;;;;;;;;;;;;;2.96;100.00;94573.16;5053387;28;1049;-65
2024/01/04 06:40:36;;;;;;;;;;;;;;;2.80;100.00;94575.38;5052999;28;1032;-66
2024/01/04 06:43:03;;;;;;;;;;;;;;;2.94;100.00;94575.09;5053277;28;1993;-64
2024/01/04 06:45:32;;;;;;;;;;;;;;;2.96;100.00;94572.28;5035354;28;1050;-65
2024/01/04 06:47:58;;;;;;;;;;;;;;;2.89;100.00;94582.53;5052743;28;970;-67
2024/01/04 06:50:24;;;;;;;;;;;;;;;2.97;100.00;94582.72;5053210;28;975;-65
2024/01/04 06:52:50;;;;;;;;;;;;;;;3.18;100.00;94579.25;5053319;28;978;-65
2024/01/04 06:55:16;;;;;;;;;;;;;;;3.27;100.00;94574.00;5053246;28;1004;-65
2024/01/04 06:57:42;;;;;;;;;;;;;;;3.25;100.00;94567.19;5035453;28;964;-65
2024/01/04 07:00:08;;;;;;;;;;;;;;;3.26;100.00;94582.06;5053539;28;1049;-65
2024/01/04 07:02:35;;;;;;;;;;;;;;;3.18;100.00;94576.59;5035116;28;1891;-65
2024/01/04 07:05:03;;;;;;;;;;;;;;;3.15;100.00;94576.84;5052872;28;1057;-65
2024/01/04 07:07:30;;;;;;;;;;;;;;;3.21;100.00;94585.13;5053041;28;922;-63
2024/01/04 07:09:56;;;;;;;;;;;;;;;3.13;100.00;94588.41;5052997;28;1026;-63
2024/01/04 07:12:23;;;;;;;;;;;;;;;3.24;100.00;94584.00;5052880;28;987;-63
2024/01/04 07:14:49;;;;;;;;;;;;;;;3.33;100.00;94586.69;5053063;28;986;-63
2024/01/04 07:17:16;;;;;;;;;;;;;;;3.40;100.00;94594.13;5052774;28;988;-64
2024/01/04 07:19:43;;;;;;;;;;;;;;;3.45;100.00;94589.25;5052506;28;1119;-63
2024/01/04 07:22:10;;;;;;;;;;;;;;;3.41;100.00;94591.31;5052655;28;1898;-64
2024/01/04 07:24:36;;;;;;;;;;;;;;;3.61;100.00;94607.31;5052410;28;1105;-64
2024/01/04 07:27:03;;;;;;;;;;;;;;;3.55;100.00;94600.75;5052984;28;959;-63
2024/01/04 07:29:29;;;;;;;;;;;;;;;3.63;100.00;94592.13;5052595;28;1163;-63
2024/01/04 07:31:55;;;;;;;;;;;;;;;3.66;100.00;94605.94;5052717;28;947;-63
2024/01/04 07:34:22;;;;;;;;;;;;;;;3.73;100.00;94606.22;5052777;28;1016;-64
2024/01/04 07:36:48;;;;;;;;;;;;;;;3.84;100.00;94607.94;5034883;28;1045;-64
2024/01/04 07:39:15;;;;;;;;;;;;;;;4.02;100.00;94616.06;5052499;28;1111;-64
2024/01/04 07:41:41;;;;;;;;;;;;;;;4.05;100.00;94621.94;5052859;28;1993;-63
2024/01/04 07:44:07;;;;;;;;;;;;;;;4.11;100.00;94608.16;5035194;28;998;-65
2024/01/04 07:46:33;;;;;;;;;;;;;;;4.08;100.00;94616.38;5052610;28;946;-65
2024/01/04 07:48:59;;;;;;;;;;;;;;;4.28;100.00;94611.13;5052365;28;1098;-64
2024/01/04 07:51:25;;;;;;;;;;;;;;;4.31;100.00;94605.59;5052642;28;993;-65
2024/01/04 07:53:51;;;;;;;;;;;;;;;4.36;100.00;94603.34;5052400;28;1021;-66
2024/01/04 07:56:17;;;;;;;;;;;;;;;4.52;100.00;94599.34;5052323;28;1132;-66
2024/01/04 07:58:43;;;;;;;;;;;;;;;4.74;100.00;94587.63;5054585;28;1001;-60
2024/01/04 08:01:09;;;;;;;;;;;;;;;4.78;100.00;94578.44;5055902;28;1991;-67
2024/01/04 08:03:35;;;;;;;;;;;;;;;4.87;100.00;94562.53;5038382;28;985;-64
2024/01/04 08:06:01;;;;;;;;;;;;;;;5.07;100.00;94563.38;5055907;28;1037;-64
2024/01/04 08:08:27;;;;;;;;;;;;;;;5.10;100.00;94559.59;5056002;28;925;-65
2024/01/04 08:10:54;;;;;;;;;;;;;;;5.16;100.00;94540.47;5055999;28;1000;-64
2024/01/04 08:13:20;;;;;;;;;;;;;;;5.38;100.00;94541.94;5055966;28;1008;-64
2024/01/04 08:15:46;;;;;;;;;;;;;;;5.75;100.00;94550.88;5055742;28;1108;-64
2024/01/04 08:18:12;;;;;;;;;;;;;;;5.77;100.00;94530.38;5055529;28;1190;-65
2024/01/04 08:20:38;;;;;;;;;;;;;;;5.90;100.00;94520.25;5038317;28;1023;-65
2024/01/04 08:23:04;;;;;;;;;;;;;;;6.09;100.00;94513.16;5055613;28;1906;-65
2024/01/04 08:25:30;;;;;;;;;;;;;;;6.20;100.00;94510.31;5055357;28;1093;-65
2024/01/04 08:27:56;;;;;;;;;;;;;;;6.27;100.00;94551.19;5055561;28;1203;-65
2024/01/04 08:30:22;;;;;;;;;;;;;;;5.90;100.00;94568.00;5055358;28;1033;-65
2024/01/04 08:32:48;;;;;;;;;;;;;;;5.58;100.00;94550.69;5055885;28;1142;-65
2024/01/04 08:35:17;;;;;;;;;;;;;;;5.43;100.00;94530.91;5055584;28;1081;-64
2024/01/04 08:37:45;;;;;;;;;;;;;;;5.53;100.00;94534.34;5055276;28;1099;-65
2024/01/04 08:40:12;;;;;;;;;;;;;;;5.53;100.00;94530.88;5055440;28;920;-64
2024/01/04 08:42:38;;;;;;;;;;;;;;;5.35;100.00;94530.78;5055098;28;1988;-64
2024/01/04 08:45:05;;;;;;;;;;;;;;;5.65;100.00;94540.31;5055200;28;1095;-65
2024/01/04 08:47:31;;;;;;;;;;;;;;;5.74;100.00;94525.34;5054978;28;1076;-65
2024/01/04 08:50:00;;;;;;;;;;;;;;;5.85;100.00;94512.72;5055348;28;974;-64
2024/01/04 08:52:27;;;;;;;;;;;;;;;6.36;100.00;94522.94;5055307;28;995;-65
2024/01/04 08:54:53;;;;;;;;;;;;;;;6.57;100.00;94518.13;5055191;28;972;-64
2024/01/04 08:57:19;;;;;;;;;;;;;;;6.61;100.00;94519.50;5055022;28;978;-64
2024/01/04 08:59:45;;;;;;;;;;;;;;;6.61;100.00;94527.47;5037506;28;1085;-64
2024/01/04 09:02:11;;;;;;;;;;;;;;;6.64;100.00;94548.44;5054688;28;1991;-63
2024/01/04 09:04:37;;;;;;;;;;;;;;;6.43;100.00;94531.94;5054804;28;1024;-63
2024/01/04 09:07:03;;;;;;;;;;;;;;;6.33;100.00;94539.97;5037080;28;1063;-63
2024/01/04 09:09:29;;;;;;;;;;;;;;;6.15;100.00;94528.53;5054187;28;1045;-63
2024/01/04 09:11:55;;;;;;;;;;;;;;;5.93;100.00;94538.50;5054616;28;1041;-63
2024/01/04 09:14:21;;;;;;;;;;;;;;;5.99;100.00;94522.00;5054489;28;1053;-63
2024/01/04 09:16:48;;;;;;;;;;;;;;;5.88;100.00;94501.00;5054730;28;974;-63
2024/01/04 09:19:14;;;;;;;;;;;;;;;6.19;100.00;94482.94;5054453;28;1088;-63
2024/01/04 09:21:42;;;;;;;;;;;;;;;6.63;100.00;94476.84;5054335;28;1979;-63
2024/01/04 09:24:10;;;;;;;;;;;;;;;6.72;100.00;94485.75;5054532;28;1124;-64
2024/01/04 09:26:40;;;;;;;;;;;;;;;7.14;100.00;94501.81;5054719;28;1050;-63
2024/01/04 09:29:06;;;;;;;;;;;;;;;7.32;98.75;94506.25;5054331;28;1234;-62
2024/01/04 09:31:33;;;;;;;;;;;;;;;7.32;97.67;94498.25;5054073;28;1083;-62
2024/01/04 09:33:59;;;;;;;;;;;;;;;7.28;98.55;94496.91;5036784;28;1016;-62
2024/01/04 09:36:25;;;;;;;;;;;;;;;7.12;100.00;94487.84;5054193;28;1032;-62
2024/01/04 09:38:51;;;;;;;;;;;;;;;7.22;99.05;94479.75;5054166;28;1021;-62
2024/01/04 09:41:28;;;;;;;;;;;;;;;7.37;97.52;94483.50;5053994;28;1922;-62
2024/01/04 09:44:03;;;;;;;;;;;;;;;7.42;97.81;94481.22;5054003;28;1080;-62
2024/01/04 09:46:34;;;;;;;;;;;;;;;7.31;98.67;94468.19;5053953;28;1176;-63
2024/01/04 09:49:00;;;;;;;;;;;;;;;7.42;98.55;94464.44;5053971;28;1029;-63
2024/01/04 09:51:27;;;;;;;;;;;;;;;7.65;98.58;94453.22;5053952;28;991;-62
2024/01/04 09:53:54;;;;;;;;;;;;;;;7.49;99.38;94454.78;5053898;28;1021;-62
2024/01/04 09:56:24;;;;;;;;;;;;;;;7.69;98.52;94454.56;5053775;28;1047;-61
2024/01/04 09:58:51;;;;;;;;;;;;;;;7.77;98.59;94452.75;5053980;28;1008;-68
2024/01/04 10:01:18;;;;;;;;;;;;;;;7.82;97.82;94447.78;5053578;28;1909;-64
2024/01/04 10:03:46;;;;;;;;;;;;;;;7.69;98.60;94443.94;5053668;28;1045;-65
2024/01/04 10:06:13;;;;;;;;;;;;;;;7.86;98.58;94442.16;5053625;28;979;-65
2024/01/04 10:08:42;;;;;;;;;;;;;;;8.07;97.53;94431.06;5053588;28;1025;-65
2024/01/04 10:11:16;;;;;;;;;;;;;;;8.22;96.99;94424.09;5053529;28;1023;-65
2024/01/04 10:13:43;;;;;;;;;;;;;;;8.37;97.08;94432.28;5036052;28;983;-65
2024/01/04 10:16:11;;;;;;;;;;;;;;;8.34;98.11;94421.94;5053473;28;1095;-65
2024/01/04 10:18:37;;;;;;;;;;;;;;;8.32;96.89;94415.94;5053391;28;1041;-64
2024/01/04 10:21:04;;;;;;;;;;;;;;;7.93;98.58;94412.06;5053077;28;983;-65
2024/01/04 10:23:31;;;;;;;;;;;;;;;7.83;100.00;94400.72;5052794;28;1938;-65
2024/01/04 10:26:11;;;;;;;;;;;;;;;7.86;99.86;94387.09;5035415;28;1134;-65
2024/01/04 10:28:38;;;;;;;;;;;;;;;7.92;99.54;94378.44;5053580;28;1167;-65
2024/01/04 10:31:05;;;;;;;;;;;;;;;8.13;98.98;94385.97;5053436;28;957;-65
2024/01/04 10:33:31;;;;;;;;;;;;;;;8.30;99.77;94384.16;5053480;28;991;-65
2024/01/04 10:36:06;;;;;;;;;;;;;;;8.31;99.61;94377.84;5035870;28;1036;-65
2024/01/04 10:38:33;;;;;;;;;;;;;;;8.27;99.75;94376.50;5053351;28;975;-65
2024/01/04 10:41:01;;;;;;;;;;;;;;;8.17;100.00;94376.63;5053155;28;1029;-65
2024/01/04 10:43:28;;;;;;;;;;;;;;;8.08;100.00;94367.00;5053530;28;1989;-65
2024/01/04 10:46:02;;;;;;;;;;;;;;;8.06;100.00;94362.81;5035448;28;1042;-65
2024/01/04 10:48:28;;;;;;;;;;;;;;;8.07;100.00;94361.84;5053027;28;1016;-65
2024/01/04 10:50:57;;;;;;;;;;;;;;;8.05;100.00;94362.00;5053293;28;1054;-65
2024/01/04 10:53:25;;;;;;;;;;;;;;;7.95;100.00;94346.19;5053161;28;1029;-65
2024/01/04 10:55:52;;;;;;;;;;;;;;;7.97;100.00;94340.72;5053231;28;1014;-64
2024/01/04 10:58:20;;;;;;;;;;;;;;;8.20;100.00;94338.22;5053044;28;992;-65
2024/01/04 11:00:47;;;;;;;;;;;;;;;8.25;100.00;94333.19;5053037;28;1076;-65
2024/01/04 11:03:13;;;;;;;;;;;;;;;8.35;100.00;94325.91;5052880;28;1914;-65
2024/01/04 11:05:40;;;;;;;;;;;;;;;8.28;100.00;94321.41;5053134;28;952;-65
2024/01/04 11:08:07;;;;;;;;;;;;;;;8.35;100.00;94312.56;5052894;28;1021;-65
2024/01/04 11:10:34;;;;;;;;;;;;;;;8.44;99.26;94299.28;5052965;28;1040;-65
2024/01/04 11:13:01;;;;;;;;;;;;;;;8.63;99.71;94293.56;5053094;28;1089;-65
2024/01/04 11:15:27;;;;;;;;;;;;;;;8.83;98.50;94270.03;5052720;28;1083;-64
2024/01/04 11:18:03;;;;;;;;;;;;;;;9.02;97.82;94268.78;5035045;28;1088;-65
2024/01/04 11:20:50;;;;;;;;;;;;;;;9.04;98.27;94266.78;5052960;28;1038;-65
2024/01/04 11:23:27;;;;;;;;;;;;;;;9.26;97.23;94265.19;5053241;28;1909;-64
2024/01/04 11:26:10;;;;;;;;;;;;;;;9.44;97.05;94264.09;5035044;28;1130;-64
2024/01/04 11:28:36;;;;;;;;;;;;;;;9.60;96.87;94260.47;5034941;28;1223;-65
2024/01/04 11:31:03;;;;;;;;;;;;;;;9.60;97.14;94257.81;5052640;28;1037;-65
2024/01/04 11:33:29;;;;;;;;;;;;;;;9.72;96.96;94256.41;5054174;28;1025;-62
2024/01/04 11:35:55;;;;;;;;;;;;;;;9.86;94.28;94258.28;5056678;28;985;-62
2024/01/04 11:38:22;;;;;;;;;;;;;;;9.95;92.96;94265.22;5056255;28;1180;-62
2024/01/04 11:40:49;;;;;;;;;;;;;;;9.88;91.93;94261.59;5056430;28;1091;-62
2024/01/04 11:43:16;;;;;;;;;;;;;;;9.84;91.69;94246.97;5056142;28;1910;-62
2024/01/04 11:45:45;;;;;;;;;;;;;;;9.78;91.24;94240.50;5056270;28;1092;-62
2024/01/04 11:48:12;;;;;;;;;;;;;;;9.69;91.10;94246.06;5056462;28;997;-62
2024/01/04 11:50:48;;;;;;;;;;;;;;;9.80;90.63;94228.81;5056446;28;1046;-61
2024/01/04 11:53:15;;;;;;;;;;;;;;;9.76;90.38;94207.81;5056067;28;1053;-62
2024/01/04 11:55:41;;;;;;;;;;;;;;;9.91;90.91;94209.72;5056006;28;1033;-60
2024/01/04 11:58:08;;;;;;;;;;;;;;;10.22;89.82;94203.41;5056259;28;971;-61
2024/01/04 12:00:36;;;;;;;;;;;;;;;10.48;91.25;94205.69;5056321;28;1090;-62
2024/01/04 12:03:11;;;;;;;;;;;;;;;10.60;90.81;94211.41;5055895;28;1910;-62
2024/01/04 12:05:37;;;;;;;;;;;;;;;10.69;90.14;94203.09;5056017;28;1020;-62
2024/01/04 12:08:03;;;;;;;;;;;;;;;10.78;92.09;94192.34;5038172;28;1025;-62
2024/01/04 12:10:29;;;;;;;;;;;;;;;10.86;88.27;94181.53;5055678;28;1003;-62
2024/01/04 12:12:55;;;;;;;;;;;;;;;10.97;87.80;94166.84;5056093;28;980;-63
2024/01/04 12:15:21;;;;;;;;;;;;;;;11.28;85.96;94169.25;5056037;28;1048;-63
2024/01/04 12:17:47;;;;;;;;;;;;;;;11.20;85.37;94175.56;5056002;28;963;-64
2024/01/04 12:20:13;;;;;;;;;;;;;;;11.39;83.49;94176.78;5055731;28;974;-63
2024/01/04 12:22:39;;;;;;;;;;;;;;;11.62;83.51;94186.50;5055652;28;1906;-63
2024/01/04 12:25:07;;;;;;;;;;;;;;;11.53;84.26;94193.81;5055567;28;1094;-63
2024/01/04 12:27:36;;;;;;;;;;;;;;;11.35;83.55;94209.47;5055616;28;1206;-63
2024/01/04 12:30:05;;;;;;;;;;;;;;;11.46;84.05;94209.00;5055716;28;1075;-63
2024/01/04 12:32:32;;;;;;;;;;;;;;;11.08;84.36;94185.91;5055668;28;971;-63
2024/01/04 12:35:00;;;;;;;;;;;;;;;10.87;84.34;94192.03;5055738;28;1068;-62
2024/01/04 12:37:26;;;;;;;;;;;;;;;10.72;83.77;94200.06;5055232;28;1023;-61
2024/01/04 12:39:52;;;;;;;;;;;;;;;10.67;84.06;94207.81;5055514;28;1045;-62
2024/01/04 12:42:20;;;;;;;;;;;;;;;10.64;83.71;94202.84;5055068;28;1906;-62
2024/01/04 12:44:49;;;;;;;;;;;;;;;10.48;85.06;94206.50;5054485;28;1029;-62
2024/01/04 12:47:20;;;;;;;;;;;;;;;10.58;86.04;94192.88;5055438;28;1037;-62
2024/01/04 12:49:53;;;;;;;;;;;;;;;10.54;85.81;94186.25;5037450;28;983;-61
2024/01/04 12:52:19;;;;;;;;;;;;;;;10.45;84.92;94198.88;5054982;28;1029;-62
2024/01/04 12:54:46;;;;;;;;;;;;;;;10.50;84.67;94207.16;5037639;28;982;-64
2024/01/04 12:57:12;;;;;;;;;;;;;;;10.39;85.05;94201.44;5055080;28;999;-63